Time;durP1;ratioP1;P1;durP2;ratioP2;P2;SDS_P1;SDS_P2;PMS_P1;PMS_P2;Temp;Humidity;BMP_temperature;BMP_pressure;BME280_temperature;BME280_humidity;BME280_pressure;Samples;Min_cycle;Max_cycle;Signal;HPM_P1;HPM_P2
2023/10/19 00:01:53;;;;;;;;;;;;;;;5.64;100.00;100024.41;88661;276;137149;-70
2023/10/19 00:03:59;;;;;;;14.80;11.80;;;;;;;5.62;100.00;100027.05;88687;277;22534;-67
2023/10/19 00:06:01;;;;;;;18.00;11.50;;;;;;;5.60;100.00;100030.85;88530;280;138065;-71
2023/10/19 00:08:14;;;;;;;17.40;12.40;;;;;;;5.59;100.00;100029.46;88404;272;138150;-67
2023/10/19 00:10:16;;;;;;;15.90;11.80;;;;;;;5.59;100.00;100030.74;88642;276;22621;-71
2023/10/19 00:12:21;;;;;;;13.60;11.30;;;;;;;5.59;100.00;100031.14;88531;276;137544;-73
2023/10/19 00:14:25;;;;;;;15.00;12.80;;;;;;;5.59;100.00;100028.50;88666;279;25168;-70
2023/10/19 00:16:30;;;;;;;16.70;12.00;;;;;;;5.57;100.00;100031.29;88574;272;137222;-73
2023/10/19 00:18:34;;;;;;;15.40;12.60;;;;;;;5.56;100.00;100026.85;88730;276;22558;-72
2023/10/19 00:22:47;;;;;;;15.30;12.40;;;;;;;5.53;100.00;100033.39;88649;280;22618;-74
2023/10/19 00:24:50;;;;;;;14.20;12.20;;;;;;;5.50;100.00;100042.08;88680;276;137020;-72
2023/10/19 00:26:54;;;;;;;16.70;12.80;;;;;;;5.48;100.00;100037.17;88733;280;25124;-70
2023/10/19 00:28:57;;;;;;;14.70;12.90;;;;;;;5.44;100.00;100037.80;88489;275;139241;-71
2023/10/19 00:31:08;;;;;;;15.40;13.00;;;;;;;5.41;100.00;100039.91;88602;280;25163;-69
2023/10/19 00:33:18;;;;;;;15.20;12.10;;;;;;;5.40;100.00;100039.77;88564;274;138470;-73
2023/10/19 00:35:35;;;;;;;15.00;12.90;;;;;;;5.41;100.00;100041.42;88689;278;25175;-70
2023/10/19 00:37:42;;;;;;;14.10;11.40;;;;;;;5.43;100.00;100037.04;88792;271;137360;-68
2023/10/19 00:39:54;;;;;;;12.90;11.40;;;;;;;5.44;100.00;100037.11;88762;272;24869;-72
2023/10/19 00:41:57;;;;;;;18.20;13.40;;;;;;;5.45;100.00;100034.70;88548;276;137118;-67
2023/10/19 00:44:04;;;;;;;16.20;12.90;;;;;;;5.46;100.00;100030.30;88714;279;25213;-72
2023/10/19 00:46:10;;;;;;;16.10;12.90;;;;;;;5.39;100.00;100018.39;88641;274;24014;-69
2023/10/19 00:48:12;;;;;;;13.90;12.00;;;;;;;5.47;100.00;100034.46;88673;272;138237;-71
2023/10/19 00:50:21;;;;;;;13.60;11.60;;;;;;;5.46;100.00;100030.34;88661;276;26280;-71
2023/10/19 00:52:23;;;;;;;13.80;11.50;;;;;;;5.46;100.00;100025.38;88565;272;137837;-71
2023/10/19 00:54:42;;;;;;;15.20;12.10;;;;;;;5.48;100.00;100027.33;88733;272;24054;-72
2023/10/19 00:56:55;;;;;;;16.10;12.60;;;;;;;5.51;100.00;100023.27;88621;280;137623;-72
2023/10/19 00:59:14;;;;;;;14.50;11.80;;;;;;;5.56;100.00;100024.00;88682;279;22547;-71
2023/10/19 01:01:19;;;;;;;15.10;12.30;;;;;;;5.60;100.00;100025.70;88568;280;137166;-72
2023/10/19 01:03:21;;;;;;;14.70;11.60;;;;;;;5.64;100.00;100030.43;88609;274;25080;-71
2023/10/19 01:05:23;;;;;;;13.90;12.30;;;;;;;5.70;100.00;100032.45;88663;276;137190;-71
2023/10/19 01:07:27;;;;;;;16.00;11.70;;;;;;;5.74;100.00;100031.44;88633;279;22750;-70
2023/10/19 01:09:34;;;;;;;16.30;12.70;;;;;;;5.78;100.00;100031.70;88549;279;137050;-70
2023/10/19 01:11:36;;;;;;;14.40;11.20;;;;;;;5.84;100.00;100031.66;88661;279;24029;-70
2023/10/19 01:13:44;;;;;;;18.00;12.10;;;;;;;5.90;100.00;100030.34;88486;276;136985;-72
2023/10/19 01:15:49;;;;;;;14.70;11.90;;;;;;;5.96;100.00;100033.84;88570;273;25338;-73
2023/10/19 01:17:52;;;;;;;14.80;11.10;;;;;;;6.02;100.00;100031.34;88984;279;137234;-67
2023/10/19 01:19:58;;;;;;;14.40;12.60;;;;;;;6.05;100.00;100024.81;89638;273;25117;-68
2023/10/19 01:22:04;;;;;;;14.80;12.60;;;;;;;6.08;100.00;100023.25;89283;274;137035;-69
2023/10/19 01:24:07;;;;;;;14.80;11.80;;;;;;;6.11;100.00;100024.59;89301;275;137169;-71
2023/10/19 01:26:10;;;;;;;16.10;12.70;;;;;;;6.12;100.00;100025.64;88595;275;24091;-72
2023/10/19 01:28:16;;;;;;;13.20;11.80;;;;;;;6.12;100.00;100025.66;88588;271;137425;-72
2023/10/19 01:30:18;;;;;;;17.80;12.60;;;;;;;6.10;100.00;100023.56;88760;273;25278;-72
2023/10/19 01:32:22;;;;;;;19.00;11.80;;;;;;;6.08;100.00;100024.36;88591;277;137861;-73
2023/10/19 01:34:26;;;;;;;14.80;11.90;;;;;;;6.07;100.00;100025.39;88580;279;22612;-71
2023/10/19 01:36:32;;;;;;;14.00;12.40;;;;;;;6.07;100.00;100022.00;88548;278;137641;-67
2023/10/19 01:38:34;;;;;;;14.90;12.00;;;;;;;6.09;100.00;100025.64;88827;272;22531;-66
2023/10/19 01:40:37;;;;;;;15.10;12.40;;;;;;;6.09;100.00;100026.83;88614;274;138572;-71
2023/10/19 01:42:39;;;;;;;16.50;13.20;;;;;;;6.08;100.00;100027.12;88643;281;24213;-72
2023/10/19 01:44:41;;;;;;;16.10;12.20;;;;;;;6.08;100.00;100027.00;88517;273;137414;-74
2023/10/19 01:46:43;;;;;;;12.70;11.40;;;;;;;6.05;100.00;100025.38;88511;282;25193;-71
2023/10/19 01:48:46;;;;;;;15.10;12.40;;;;;;;6.02;100.00;100027.07;88676;273;137122;-73
2023/10/19 01:50:50;;;;;;;18.20;13.50;;;;;;;5.99;100.00;100029.33;88712;276;22780;-76
2023/10/19 01:52:52;;;;;;;15.50;13.70;;;;;;;5.96;100.00;100026.45;88594;279;136969;-75
2023/10/19 01:54:59;;;;;;;16.10;13.10;;;;;;;5.94;100.00;100020.45;88652;279;22547;-73
2023/10/19 01:57:01;;;;;;;16.00;14.10;;;;;;;5.95;100.00;100023.54;88678;279;137135;-74
2023/10/19 01:59:04;;;;;;;18.30;13.80;;;;;;;5.97;100.00;100023.39;88713;279;24024;-70
2023/10/19 02:01:09;;;;;;;15.70;13.40;;;;;;;5.97;100.00;100023.52;88585;280;137852;-73
2023/10/19 02:03:11;;;;;;;20.00;13.50;;;;;;;5.96;100.00;100022.94;88695;273;24054;-70
2023/10/19 02:05:15;;;;;;;16.70;13.80;;;;;;;5.94;100.00;100021.02;88490;279;137647;-71
2023/10/19 02:07:18;;;;;;;17.30;12.80;;;;;;;5.93;100.00;100023.10;88782;272;22543;-70
2023/10/19 02:09:26;;;;;;;17.10;13.60;;;;;;;5.91;100.00;100021.38;88674;279;137186;-73
2023/10/19 02:11:28;;;;;;;16.40;13.50;;;;;;;5.89;100.00;100024.52;88605;279;22531;-71
2023/10/19 02:13:30;;;;;;;17.60;14.20;;;;;;;5.90;100.00;100023.58;88517;281;136857;-73
2023/10/19 02:16:22;;;;;;;16.30;13.90;;;;;;;5.85;100.00;100025.85;86657;306;602800;-71
2023/10/19 02:18:24;;;;;;;22.70;13.80;;;;;;;5.83;100.00;100024.33;87792;291;25267;-72
2023/10/19 02:20:26;;;;;;;18.30;14.20;;;;;;;5.84;100.00;100022.24;88019;279;136325;-70
2023/10/19 02:22:42;;;;;;;14.60;13.00;;;;;;;5.85;100.00;100026.38;88154;279;26168;-70
2023/10/19 02:24:44;;;;;;;16.20;14.20;;;;;;;5.85;100.00;100027.93;88034;279;137292;-74
2023/10/19 02:26:54;;;;;;;17.40;14.10;;;;;;;5.69;100.00;100004.15;88148;279;24561;-72
2023/10/19 02:28:56;;;;;;;18.00;13.00;;;;;;;5.84;100.00;100025.45;88248;279;137812;-76
2023/10/19 02:31:14;;;;;;;17.10;12.80;;;;;;;5.84;100.00;100023.67;87799;283;603806;-69
2023/10/19 02:33:16;;;;;;;18.80;14.40;;;;;;;5.85;100.00;100022.90;88210;278;138330;-70
2023/10/19 02:35:18;;;;;;;14.60;12.80;;;;;;;5.84;100.00;100020.33;88404;278;25227;-76
2023/10/19 02:37:20;;;;;;;18.00;14.00;;;;;;;5.83;100.00;100021.15;88165;281;137764;-76
2023/10/19 02:39:28;;;;;;;19.20;13.90;;;;;;;5.84;100.00;100017.65;88453;281;22660;-77
2023/10/19 02:41:30;;;;;;;15.60;12.20;;;;;;;5.84;100.00;100019.44;88748;281;136882;-73
2023/10/19 02:43:35;;;;;;;17.20;12.60;;;;;;;5.83;100.00;100020.03;88451;277;25242;-69
2023/10/19 02:45:37;;;;;;;15.70;12.80;;;;;;;5.83;100.00;100016.02;88373;278;136942;-75
2023/10/19 02:47:42;;;;;;;20.70;15.30;;;;;;;5.83;100.00;100019.01;88317;278;23762;-72
2023/10/19 02:49:50;;;;;;;15.10;11.90;;;;;;;5.85;100.00;100013.02;88208;279;138270;-74
2023/10/19 02:51:54;;;;;;;15.10;13.50;;;;;;;5.89;100.00;100011.56;88553;277;22493;-70
2023/10/19 02:54:00;;;;;;;15.50;13.00;;;;;;;5.89;100.00;100010.93;88240;278;136529;-69
2023/10/19 02:56:10;;;;;;;15.30;13.10;;;;;;;5.91;100.00;100011.95;88294;282;22541;-68
2023/10/19 02:58:13;;;;;;;15.70;13.30;;;;;;;5.94;100.00;100010.45;88317;278;22890;-69
2023/10/19 03:00:15;;;;;;;17.20;14.50;;;;;;;5.96;100.00;100008.16;88185;278;136448;-69
2023/10/19 03:02:17;;;;;;;16.90;12.90;;;;;;;5.96;100.00;100009.30;88178;286;25125;-68
2023/10/19 03:04:20;;;;;;;18.20;13.90;;;;;;;5.95;100.00;100012.61;88236;277;136909;-66
2023/10/19 03:06:22;;;;;;;20.40;14.70;;;;;;;5.93;100.00;100010.50;88257;285;24030;-68
2023/10/19 03:08:26;;;;;;;14.80;13.30;;;;;;;5.92;100.00;100012.23;88170;285;136957;-69
2023/10/19 03:10:41;;;;;;;16.90;14.30;;;;;;;5.91;100.00;100007.92;88350;285;25219;-67
2023/10/19 03:12:43;;;;;;;;;;;;;;;5.87;100.00;100006.04;88168;284;136753;-70
2023/10/19 03:14:48;;;;;;;16.30;12.30;;;;;;;5.85;100.00;100001.71;88185;287;23717;-71
2023/10/19 03:16:51;;;;;;;16.60;13.90;;;;;;;5.80;100.00;100002.25;88139;279;136937;-69
2023/10/19 03:18:55;;;;;;;15.70;13.30;;;;;;;5.75;100.00;100007.59;88343;285;22637;-72
2023/10/19 03:20:57;;;;;;;20.50;15.50;;;;;;;5.71;100.00;100009.23;88142;287;136838;-71
2023/10/19 03:23:01;;;;;;;22.20;15.20;;;;;;;5.70;100.00;100010.44;88501;278;22487;-65
2023/10/19 03:27:27;;;;;;;19.00;14.80;;;;;;;5.49;100.00;99991.94;88295;278;23532;-72
2023/10/19 03:29:38;;;;;;;21.20;16.00;;;;;;;5.57;100.00;100014.36;88282;284;136827;-68
2023/10/19 03:31:43;;;;;;;18.70;15.00;;;;;;;5.51;100.00;100013.63;88458;281;22549;-69
2023/10/19 03:33:49;;;;;;;17.60;13.50;;;;;;;5.46;100.00;100010.09;88306;285;136830;-67
2023/10/19 03:35:51;;;;;;;18.10;15.30;;;;;;;5.42;100.00;100009.65;88343;278;22540;-68
2023/10/19 03:37:58;;;;;;;19.90;17.60;;;;;;;5.36;100.00;100011.69;88458;286;138765;-66
2023/10/19 03:40:05;;;;;;;19.70;15.10;;;;;;;5.21;100.00;99995.96;88252;280;22563;-66
2023/10/19 03:42:13;;;;;;;19.70;14.70;;;;;;;5.24;100.00;100008.36;88189;279;25232;-67
2023/10/19 03:44:24;;;;;;;20.70;16.40;;;;;;;5.21;100.00;100013.27;88215;278;136999;-70
2023/10/19 03:46:30;;;;;;;19.00;16.80;;;;;;;5.19;100.00;100009.96;88340;285;22547;-70
2023/10/19 03:48:38;;;;;;;21.90;16.60;;;;;;;5.16;100.00;100013.42;88236;283;136751;-70
2023/10/19 03:50:42;;;;;;;18.60;15.40;;;;;;;5.15;100.00;100013.33;88229;280;24262;-68
2023/10/19 03:52:45;;;;;;;18.80;15.40;;;;;;;5.13;100.00;100013.38;88323;278;137363;-70
2023/10/19 03:54:48;;;;;;;19.80;15.70;;;;;;;5.11;100.00;100011.86;88317;282;25176;-69
2023/10/19 03:56:52;;;;;;;19.40;15.90;;;;;;;5.06;100.00;100011.45;88333;285;136667;-70
2023/10/19 03:58:53;;;;;;;20.90;17.20;;;;;;;5.05;100.00;100010.29;88255;286;25195;-67
2023/10/19 04:01:01;;;;;;;20.40;16.10;;;;;;;5.04;100.00;100010.09;88123;286;136855;-71
2023/10/19 04:03:04;;;;;;;20.50;16.80;;;;;;;4.91;100.00;99996.88;88238;278;22533;-69
2023/10/19 04:05:09;;;;;;;18.60;15.90;;;;;;;4.93;100.00;100010.08;88355;278;138105;-70
2023/10/19 04:07:18;;;;;;;22.90;17.00;;;;;;;4.86;100.00;100010.15;88497;278;22632;-67
2023/10/19 04:09:20;;;;;;;18.60;16.00;;;;;;;4.82;100.00;100008.33;88573;277;136994;-70
2023/10/19 04:11:21;;;;;;;21.50;17.70;;;;;;;4.79;100.00;100012.38;88220;277;26045;-72
2023/10/19 04:13:23;;;;;;;20.20;16.40;;;;;;;4.76;100.00;100013.38;88109;278;136816;-71
2023/10/19 04:15:29;;;;;;;19.80;17.70;;;;;;;4.72;100.00;100014.81;88205;278;22543;-71
2023/10/19 04:17:30;;;;;;;25.80;17.40;;;;;;;4.68;100.00;100016.11;88030;279;136321;-70
2023/10/19 04:19:32;;;;;;;18.70;16.00;;;;;;;4.64;100.00;100010.48;88109;278;25329;-69
2023/10/19 04:21:38;;;;;;;22.60;17.80;;;;;;;4.63;100.00;100012.44;88044;278;136529;-72
2023/10/19 04:23:40;;;;;;;21.00;17.10;;;;;;;4.59;100.00;100009.35;88488;278;25197;-70
2023/10/19 04:25:42;;;;;;;20.20;17.30;;;;;;;4.59;100.00;100013.89;88110;278;136860;-71
2023/10/19 04:27:45;;;;;;;20.80;17.20;;;;;;;4.58;100.00;100014.36;88163;282;22544;-69
2023/10/19 04:29:49;;;;;;;20.70;17.70;;;;;;;4.57;100.00;100017.64;88069;278;137070;-69
2023/10/19 04:31:54;;;;;;;19.10;16.20;;;;;;;4.54;100.00;100020.01;88334;278;22618;-68
2023/10/19 04:33:57;;;;;;;21.80;16.90;;;;;;;4.52;100.00;100022.67;88032;279;137409;-69
2023/10/19 04:36:00;;;;;;;24.30;17.70;;;;;;;4.52;100.00;100024.09;88136;278;25109;-74
2023/10/19 04:38:06;;;;;;;21.50;17.00;;;;;;;4.51;100.00;100024.77;88130;278;139038;-67
2023/10/19 04:40:09;;;;;;;19.50;17.00;;;;;;;4.51;100.00;100024.93;88237;278;137152;-68
2023/10/19 04:42:12;;;;;;;21.10;17.50;;;;;;;4.51;100.00;100025.23;88311;278;23740;-71
2023/10/19 04:44:15;;;;;;;19.60;17.00;;;;;;;4.53;100.00;100024.40;88247;278;137028;-69
2023/10/19 04:46:18;;;;;;;21.00;17.50;;;;;;;4.53;100.00;100019.73;88282;278;24022;-69
2023/10/19 04:48:22;;;;;;;19.00;16.00;;;;;;;4.53;100.00;100025.08;88085;284;136640;-71
2023/10/19 04:50:24;;;;;;;25.00;18.30;;;;;;;4.50;100.00;100032.55;88309;285;25240;-71
2023/10/19 04:52:26;;;;;;;24.20;18.70;;;;;;;4.47;100.00;100029.70;88213;286;138297;-72
2023/10/19 04:54:29;;;;;;;23.00;18.80;;;;;;;4.43;100.00;100033.11;88242;285;23365;-71
2023/10/19 04:56:32;;;;;;;21.90;16.70;;;;;;;4.43;100.00;100035.89;88148;285;136870;-72
2023/10/19 04:58:35;;;;;;;24.70;18.70;;;;;;;4.46;100.00;100035.61;88101;280;23090;-70
2023/10/19 05:00:39;;;;;;;24.30;18.30;;;;;;;4.47;100.00;100032.48;88105;285;136746;-71
2023/10/19 05:02:41;;;;;;;22.10;18.20;;;;;;;4.51;100.00;100035.44;88276;285;25219;-70
2023/10/19 05:04:45;;;;;;;21.00;18.60;;;;;;;4.59;100.00;100034.15;88208;285;136844;-70
2023/10/19 05:06:46;;;;;;;21.50;17.80;;;;;;;4.66;100.00;100038.98;88205;282;22537;-71
2023/10/19 05:08:49;;;;;;;21.80;17.50;;;;;;;4.81;100.00;100037.70;88193;278;137036;-71
2023/10/19 05:10:56;;;;;;;24.70;18.20;;;;;;;5.06;100.00;100039.42;88164;279;24608;-72
2023/10/19 05:12:58;;;;;;;25.20;17.90;;;;;;;5.35;100.00;100046.70;88289;278;137466;-69
2023/10/19 05:15:00;;;;;;;22.60;18.00;;;;;;;5.48;100.00;100045.70;88242;278;24021;-73
2023/10/19 05:17:04;;;;;;;21.50;18.50;;;;;;;5.51;100.00;100042.94;88197;278;137035;-74
2023/10/19 05:19:06;;;;;;;23.90;18.50;;;;;;;5.51;100.00;100043.20;88253;283;24151;-71
2023/10/19 05:21:10;;;;;;;21.80;18.50;;;;;;;5.50;100.00;100043.54;88139;282;137013;-71
2023/10/19 05:23:13;;;;;;;24.20;18.20;;;;;;;5.50;100.00;100042.77;88311;285;22553;-72
2023/10/19 05:25:15;;;;;;;20.50;18.40;;;;;;;5.52;100.00;100044.77;88199;278;136859;-73
2023/10/19 05:27:17;;;;;;;22.40;18.90;;;;;;;5.49;100.00;100046.03;88299;286;25216;-72
2023/10/19 05:29:20;;;;;;;24.50;18.00;;;;;;;5.49;100.00;100045.98;88102;282;136775;-73
2023/10/19 05:31:22;;;;;;;22.30;19.60;;;;;;;5.50;100.00;100044.27;88353;282;23668;-72
2023/10/19 05:33:24;;;;;;;27.20;19.20;;;;;;;5.52;100.00;100049.31;88189;278;136897;-70
2023/10/19 05:35:29;;;;;;;21.00;18.30;;;;;;;5.54;100.00;100050.67;88313;278;24222;-71
2023/10/19 05:37:31;;;;;;;26.10;20.20;;;;;;;5.56;100.00;100051.71;88271;277;138806;-72
2023/10/19 05:39:33;;;;;;;27.00;19.20;;;;;;;5.58;100.00;100053.62;88129;281;22564;-72
2023/10/19 05:41:35;;;;;;;25.80;20.30;;;;;;;5.57;100.00;100050.50;88527;277;136929;-72
2023/10/19 05:43:40;;;;;;;26.50;20.90;;;;;;;5.60;100.00;100049.36;88122;279;26292;-71
2023/10/19 05:45:41;;;;;;;25.90;20.60;;;;;;;5.60;100.00;100052.27;88103;278;137064;-73
2023/10/19 05:47:44;;;;;;;29.00;20.90;;;;;;;5.57;100.00;100046.85;88165;278;22540;-70
2023/10/19 05:49:46;;;;;;;23.30;18.80;;;;;;;5.65;100.00;100059.21;88205;278;137142;-73
2023/10/19 05:51:48;;;;;;;24.60;20.50;;;;;;;5.68;100.00;100061.57;89516;282;26148;-72
2023/10/19 05:53:50;;;;;;;23.70;20.90;;;;;;;5.71;100.00;100064.70;88045;278;137019;-72
2023/10/19 05:55:52;;;;;;;24.00;19.80;;;;;;;5.74;100.00;100066.23;88270;286;22530;-74
2023/10/19 05:57:55;;;;;;;23.70;20.20;;;;;;;5.73;100.00;100064.55;88075;278;138313;-71
2023/10/19 05:59:57;;;;;;;26.90;20.10;;;;;;;5.70;100.00;100065.04;88183;282;27151;-72
2023/10/19 06:01:58;;;;;;;25.20;20.50;;;;;;;5.68;100.00;100066.09;88041;278;137081;-72
2023/10/19 06:04:00;;;;;;;23.20;19.40;;;;;;;5.66;100.00;100070.86;88364;277;24143;-74
2023/10/19 06:06:03;;;;;;;24.60;21.10;;;;;;;5.65;100.00;100067.31;88365;277;138308;-76
2023/10/19 06:08:05;;;;;;;23.10;18.30;;;;;;;5.66;100.00;100069.48;88461;278;137544;-74
2023/10/19 06:10:08;;;;;;;24.00;19.60;;;;;;;5.64;100.00;100066.69;88340;278;25114;-71
2023/10/19 06:12:09;;;;;;;26.10;19.80;;;;;;;5.64;100.00;100066.36;88183;278;137321;-73
2023/10/19 06:14:11;;;;;;;32.60;22.00;;;;;;;5.65;100.00;100069.52;88266;278;25083;-74
2023/10/19 06:16:16;;;;;;;29.80;22.50;;;;;;;5.69;100.00;100074.89;88078;286;138262;-75
2023/10/19 06:18:18;;;;;;;22.00;19.50;;;;;;;5.73;100.00;100076.75;88267;285;22546;-74
2023/10/19 06:20:23;;;;;;;26.40;21.20;;;;;;;5.77;100.00;100071.64;88102;277;137033;-72
2023/10/19 06:22:25;;;;;;;;;;;;;;;5.76;100.00;100069.84;88226;278;23016;-71
2023/10/19 06:24:27;;;;;;;25.00;19.90;;;;;;;5.76;100.00;100072.55;88136;278;123090;-73
2023/10/19 06:26:29;;;;;;;29.30;22.10;;;;;;;5.78;100.00;100073.38;88208;278;22553;-71
2023/10/19 06:28:38;;;;;;;24.50;20.30;;;;;;;5.80;100.00;100071.88;88068;285;137528;-74
2023/10/19 06:30:40;;;;;;;24.50;20.20;;;;;;;5.82;100.00;100070.77;88058;280;22552;-72
2023/10/19 06:32:42;;;;;;;28.70;21.90;;;;;;;5.82;100.00;100067.40;88274;278;138473;-74
2023/10/19 06:34:44;;;;;;;25.60;21.50;;;;;;;5.84;100.00;100067.45;88226;286;22521;-73
2023/10/19 06:36:46;;;;;;;27.30;23.30;;;;;;;5.84;100.00;100067.61;88109;282;138443;-73
2023/10/19 06:38:50;;;;;;;28.10;20.50;;;;;;;5.85;100.00;100066.41;88318;282;25124;-71
2023/10/19 06:40:52;;;;;;;26.60;22.80;;;;;;;5.86;100.00;100067.73;88152;278;137265;-71
2023/10/19 06:42:56;;;;;;;34.30;22.20;;;;;;;5.88;100.00;100067.04;88210;278;24894;-69
2023/10/19 06:45:00;;;;;;;26.50;21.70;;;;;;;5.91;100.00;100067.38;88047;278;137116;-73
2023/10/19 06:47:02;;;;;;;29.60;23.70;;;;;;;5.97;100.00;100065.52;88228;278;22540;-72
2023/10/19 06:49:04;;;;;;;35.00;23.10;;;;;;;6.03;100.00;100065.84;88138;278;136907;-72
2023/10/19 06:51:06;;;;;;;26.90;20.60;;;;;;;6.09;100.00;100064.77;88222;278;22540;-73
2023/10/19 06:53:09;;;;;;;28.70;22.40;;;;;;;6.14;100.00;100062.45;88141;278;136890;-73
2023/10/19 06:55:16;;;;;;;29.10;24.30;;;;;;;6.20;100.00;100058.23;88225;278;22562;-74
2023/10/19 06:57:19;;;;;;;29.90;23.50;;;;;;;6.28;100.00;100057.98;88223;281;137189;-73
2023/10/19 06:59:20;;;;;;;31.20;23.10;;;;;;;6.33;100.00;100056.65;88383;278;22542;-70
2023/10/19 07:01:26;;;;;;;29.80;21.50;;;;;;;6.41;100.00;100055.48;88151;285;137266;-71
2023/10/19 07:03:28;;;;;;;28.40;21.10;;;;;;;6.51;100.00;100053.16;88202;284;23292;-72
2023/10/19 07:05:30;;;;;;;29.70;22.70;;;;;;;6.61;100.00;100055.92;88177;276;137161;-71
2023/10/19 07:07:33;;;;;;;25.70;22.10;;;;;;;6.72;100.00;100056.63;88217;284;23388;-73
2023/10/19 07:09:36;;;;;;;31.90;26.50;;;;;;;6.80;100.00;100052.36;88183;277;138019;-71
2023/10/19 07:11:38;;;;;;;29.30;22.60;;;;;;;6.90;100.00;100054.84;88416;276;25165;-70
2023/10/19 07:13:40;;;;;;;29.80;22.90;;;;;;;6.98;100.00;100055.06;88199;276;137389;-74
2023/10/19 07:15:45;;;;;;;27.30;22.00;;;;;;;7.05;100.00;100051.58;88283;277;25171;-72
2023/10/19 07:17:46;;;;;;;;;;;;;;;7.12;100.00;100053.64;88218;276;138533;-74
2023/10/19 07:19:48;;;;;;;23.40;19.10;;;;;;;7.18;99.88;100052.44;88359;280;22540;-73
2023/10/19 07:21:57;;;;;;;30.10;22.30;;;;;;;7.23;99.00;100052.77;88145;276;137283;-72
2023/10/19 07:24:04;;;;;;;30.40;22.70;;;;;;;7.27;98.87;100050.55;88220;280;22544;-73
2023/10/19 07:26:06;;;;;;;28.20;21.40;;;;;;;7.31;98.29;100049.40;88271;277;24955;-69
2023/10/19 07:28:10;;;;;;;28.10;24.40;;;;;;;7.32;98.01;100045.84;91021;284;137719;-74
2023/10/19 07:30:15;;;;;;;34.10;24.00;;;;;;;7.33;98.14;100049.29;88877;282;25085;-78
2023/10/19 07:32:17;;;;;;;28.30;22.90;;;;;;;7.37;98.41;100049.01;88125;278;137022;-75
2023/10/19 07:34:25;;;;;;;28.60;23.40;;;;;;;7.43;97.58;100049.98;88271;284;25215;-74
2023/10/19 07:36:28;;;;;;;27.90;22.70;;;;;;;7.49;97.69;100048.23;88375;276;137002;-73
2023/10/19 07:38:33;;;;;;;31.40;23.80;;;;;;;7.55;97.21;100050.12;88462;276;28328;-73
2023/10/19 07:40:36;;;;;;;26.30;22.00;;;;;;;7.60;96.98;100049.27;88223;276;137365;-72
2023/10/19 07:42:37;;;;;;;32.90;24.60;;;;;;;7.63;96.70;100052.10;88233;276;22537;-72
2023/10/19 07:44:39;;;;;;;29.70;23.20;;;;;;;7.67;96.72;100051.10;88067;281;138318;-74
2023/10/19 07:46:42;;;;;;;30.90;23.30;;;;;;;7.70;96.31;100052.77;88173;277;24062;-73
2023/10/19 07:48:44;;;;;;;29.50;21.60;;;;;;;7.72;96.42;100050.71;88109;280;138228;-74
2023/10/19 07:50:46;;;;;;;28.20;23.20;;;;;;;7.75;96.69;100045.90;88111;277;22722;-72
2023/10/19 07:52:50;;;;;;;35.80;23.00;;;;;;;7.80;96.10;100047.69;88091;277;137159;-73
2023/10/19 07:54:53;;;;;;;34.30;26.90;;;;;;;7.84;95.50;100045.16;88187;276;24058;-75
2023/10/19 07:56:54;;;;;;;35.90;24.70;;;;;;;7.87;95.76;100040.11;88113;276;137171;-74
2023/10/19 07:58:56;;;;;;;28.00;23.00;;;;;;;7.93;95.67;100037.51;88111;276;22708;-75
2023/10/19 08:00:59;;;;;;;32.70;24.40;;;;;;;8.01;95.14;100037.56;88231;277;137114;-74
2023/10/19 08:03:02;;;;;;;29.90;23.00;;;;;;;8.12;95.01;100036.91;88430;277;22794;-73
2023/10/19 08:05:07;;;;;;;32.30;24.00;;;;;;;8.27;94.45;100035.98;88282;276;137171;-75
2023/10/19 08:07:10;;;;;;;36.90;26.10;;;;;;;8.44;93.59;100030.16;88302;276;22956;-72
2023/10/19 08:09:12;;;;;;;29.90;24.00;;;;;;;8.54;92.52;100023.45;88117;277;136839;-73
2023/10/19 08:11:14;;;;;;;34.90;24.60;;;;;;;8.76;91.30;100028.70;88165;277;22476;-74
2023/10/19 08:13:16;;;;;;;29.40;23.00;;;;;;;8.90;90.98;100026.76;88112;275;136430;-72
2023/10/19 08:15:20;;;;;;;32.60;22.70;;;;;;;9.05;89.74;100024.70;88503;282;25214;-73
2023/10/19 08:17:23;;;;;;;30.90;23.30;;;;;;;9.18;88.94;100021.63;88141;276;136391;-72
2023/10/19 08:19:27;;;;;;;29.00;22.10;;;;;;;9.31;88.14;100023.65;88447;280;22537;-72
2023/10/19 08:21:29;;;;;;;27.10;21.50;;;;;;;9.42;86.59;100025.85;88171;280;136879;-73
2023/10/19 08:23:31;;;;;;;25.80;21.80;;;;;;;9.49;86.24;100018.97;88064;276;22742;-74
2023/10/19 08:25:33;;;;;;;29.70;21.80;;;;;;;9.53;86.14;100017.90;88165;280;136319;-73
2023/10/19 08:27:57;;;;;;;25.00;20.70;;;;;;;9.60;86.36;100015.28;88215;282;23701;-75
2023/10/19 08:29:59;;;;;;;27.60;22.00;;;;;;;9.69;85.90;100012.91;87967;282;135935;-72
2023/10/19 08:32:01;;;;;;;28.80;22.60;;;;;;;9.80;85.51;100015.42;88165;281;22541;-75
2023/10/19 08:34:03;;;;;;;26.50;20.30;;;;;;;9.92;84.81;100015.94;88259;276;22540;-74
2023/10/19 08:36:06;;;;;;;22.30;18.60;;;;;;;10.03;83.20;100013.86;88081;278;137451;-73
2023/10/19 08:38:11;;;;;;;20.00;17.90;;;;;;;10.08;82.42;100007.91;88255;280;22903;-74
2023/10/19 08:40:17;;;;;;;24.00;18.10;;;;;;;10.10;81.97;100011.16;88266;276;136900;-75
2023/10/19 08:42:20;;;;;;;23.40;19.00;;;;;;;10.05;82.04;99994.98;88151;284;24040;-73
2023/10/19 08:44:22;;;;;;;29.50;21.70;;;;;;;10.16;82.19;100011.50;88660;285;136439;-74
2023/10/19 08:46:24;;;;;;;27.80;23.60;;;;;;;10.22;82.39;100011.86;88646;277;25804;-74
2023/10/19 08:48:26;;;;;;;26.90;22.00;;;;;;;10.25;81.06;100009.77;89023;276;136687;-74
2023/10/19 08:50:31;;;;;;;28.20;20.00;;;;;;;10.27;81.00;100013.91;88133;278;23752;-75
2023/10/19 08:52:35;;;;;;;24.80;21.40;;;;;;;10.26;80.90;100010.95;88203;280;136529;-72
2023/10/19 08:54:38;;;;;;;28.30;21.60;;;;;;;10.27;81.47;100012.73;88128;278;24885;-74
2023/10/19 08:56:41;;;;;;;25.70;20.90;;;;;;;10.31;81.22;100013.91;88337;276;136684;-70
2023/10/19 08:58:43;;;;;;;24.90;19.80;;;;;;;10.36;80.87;100011.34;88506;284;24680;-72
2023/10/19 09:00:56;;;;;;;24.60;20.20;;;;;;;10.39;80.51;100008.86;88131;284;137975;-73
2023/10/19 09:02:59;;;;;;;23.10;19.20;;;;;;;10.41;80.61;100008.71;88436;284;22531;-75
2023/10/19 09:05:08;;;;;;;19.50;17.40;;;;;;;10.45;80.22;100008.11;88497;276;136821;-75
2023/10/19 09:07:11;;;;;;;25.70;19.70;;;;;;;10.50;80.31;100006.88;88352;277;25173;-73
2023/10/19 09:09:25;;;;;;;27.20;19.50;;;;;;;10.55;80.16;100006.91;88145;277;136671;-74
2023/10/19 09:11:26;;;;;;;19.60;17.20;;;;;;;10.63;79.98;100003.30;88132;278;22893;-74
2023/10/19 09:13:43;;;;;;;18.80;15.90;;;;;;;10.71;79.23;100000.27;88070;283;136295;-74
2023/10/19 09:15:45;;;;;;;14.20;12.20;;;;;;;10.70;78.39;99987.10;88784;276;25642;-74
2023/10/19 09:17:54;;;;;;;12.70;10.70;;;;;;;10.79;76.51;99999.00;88253;280;136471;-77
2023/10/19 09:19:59;;;;;;;8.80;7.80;;;;;;;10.80;75.61;99995.93;88637;280;23157;-73
2023/10/19 09:22:07;;;;;;;10.40;8.60;;;;;;;10.83;75.32;99993.97;88556;276;135594;-75
2023/10/19 09:24:09;;;;;;;8.90;7.90;;;;;;;10.89;74.94;99989.64;88467;280;136432;-74
2023/10/19 09:26:12;;;;;;;7.30;6.50;;;;;;;10.95;73.48;99989.17;88873;280;24088;-75
2023/10/19 09:28:14;;;;;;;7.50;6.80;;;;;;;11.03;72.03;99987.48;88769;276;137284;-78
2023/10/19 09:30:19;;;;;;;10.10;8.00;;;;;;;11.07;71.71;99984.88;88537;284;22533;-72
2023/10/19 09:32:22;;;;;;;13.50;7.70;;;;;;;11.13;71.75;99988.87;88335;276;136368;-75
2023/10/19 09:34:31;;;;;;;8.00;7.10;;;;;;;11.17;70.71;99987.58;88601;279;25187;-75
2023/10/19 09:36:34;;;;;;;7.10;6.40;;;;;;;11.20;69.24;99987.04;88421;276;136303;-74